岡山グライダークラブ活動状況掲示板あなたは無料カウンター人目の訪問者です

岡山グライダークラブ
岡山市浦安南町639-1 岡南飛行場
 使用機:シャイベ式 SF25C型 ファルケ   JA2330
      ヴァレンティン式17E型 タイフーン  JA2342
 練習日:毎日曜日  クラブルーム:電話 086-265-1810
この掲示板は岡山グライダークラブの活動状況をお知らせする掲示板です。
!!!この掲示板は投稿規制をしています。!!!
クラブ関連各種情報は 岡山グライダークラブクラブルーム      を       .
  ブリーフイング情報は  岡山グライダークラブブリーフィングルーム  をご覧下さい。 .
※写真はクリックすると拡大して見ることが出来ます。
岡南飛行場へのアクセス等は 岡南飛行場管理事務所 をご覧ください。
クラブの ホームページ ができました。

 
10月28日
by OGC at 2018/10/28(日) 19:19:32 No.20181028190230  削除コメント
1024 x 768 x 74,529バイト
No.1

10月28日
本日の参加者
  会員      11名
  その他      0名


@本日の様子




METAR
RJBK 280100Z 28007KT 30KM FEW030CU 17/07 Q1013 A2993
RKOB 280100Z 27009KT 230V300 9999 FEW025 16/07 Q1013
RJOT 280100Z 25011KT 210V280 9999 FEW030 SCT040 16/08 Q1013
RJOA 280100Z 31011KT 9999 FEW025 SCT040 15/04 Q1014
TAF
RJOB 272306Z 2800/2906 24008KT 9999 FEW025 SCT045
RJOT 272308Z 2800/2906 27013KT 9999 FEW025 SCT035
         BECMG 2810/2812 20006KT
         BECMG 2821/2900 27010KT
RJOA 272305Z 2800/2906 24007KT 9999 FEW025 SCT045
         BECMG 2818/2821 31011KT

本日は西風で昼頃には積雲が連なってクラウドストリートが形成され、一時はエンジンカットで1時間以上飛べそうなコンディションもありました。
ファルケはいつも通りの訓練フライト、タイフーンはクラウドストリートで滑空時間を稼いだり、小豆島や高梁市の備中松山城へナビに行ったり、2機とも大活躍でした。



解散    17:50

1番機  11:45離陸 撤収機  17:00着陸 

SF25C JA2330 ファルケ     07Flt.2h45min  
17E   JA2342 タイフーン    04Flt.2h45min  
合計                    11Flt.5h30min

    << 戻る || ホームページ || 最新の掲示板へ